Time;durP1;ratioP1;P1;durP2;ratioP2;P2;SDS_P1;SDS_P2;PMS_P1;PMS_P2;Temp;Humidity;BMP_temperature;BMP_pressure;BME280_temperature;BME280_humidity;BME280_pressure;Samples;Min_cycle;Max_cycle;Signal;HPM_P1;HPM_P2
2023/09/19 00:00:52;;;;;;;9.98;3.83;;;;;;;21.15;78.45;100422.91;4938208;29;20058;-79
2023/09/19 00:03:46;;;;;;;7.93;3.38;;;;;;;21.31;78.43;100426.06;4936227;29;20523;-79
2023/09/19 00:06:41;;;;;;;7.65;3.75;;;;;;;21.33;77.85;100425.69;4937626;29;20055;-79
2023/09/19 00:09:37;;;;;;;10.07;3.88;;;;;;;21.37;78.37;100422.91;4937058;29;20677;-80
2023/09/19 00:12:31;;;;;;;12.35;3.35;;;;;;;21.50;77.27;100429.63;4933912;29;20047;-79
2023/09/19 00:15:26;;;;;;;6.55;2.40;;;;;;;21.61;76.47;100435.94;4919284;29;20047;-79
2023/09/19 00:18:18;;;;;;;11.00;3.20;;;;;;;21.63;75.16;100433.59;4916765;29;20066;-79
2023/09/19 00:21:10;;;;;;;8.23;2.75;;;;;;;21.34;75.65;100427.25;4932734;29;20048;-80
2023/09/19 00:24:05;;;;;;;9.68;2.92;;;;;;;21.15;77.18;100430.41;4937127;29;20055;-79
2023/09/19 00:26:59;;;;;;;10.05;2.42;;;;;;;20.98;78.25;100426.38;4934802;29;20043;-79
2023/09/19 00:29:54;;;;;;;5.80;2.45;;;;;;;20.90;78.78;100430.34;4938097;29;20051;-78
2023/09/19 00:32:50;;;;;;;12.25;3.22;;;;;;;20.88;79.31;100427.16;4933731;29;20055;-79
2023/09/19 00:35:51;;;;;;;7.90;3.03;;;;;;;20.90;79.10;100422.03;4939100;29;20047;-79
2023/09/19 00:38:46;;;;;;;11.05;3.05;;;;;;;20.91;79.08;100418.09;4938253;29;20051;-79
2023/09/19 00:41:40;;;;;;;8.98;2.47;;;;;;;20.93;79.21;100415.72;4937512;29;20047;-79
2023/09/19 00:44:30;;;;;;;10.00;2.78;;;;;;;21.01;78.93;100409.03;4937422;29;20625;-78
2023/09/19 00:47:25;;;;;;;14.05;4.15;;;;;;;20.90;79.13;100411.00;4938266;29;20040;-79
2023/09/19 00:50:19;;;;;;;12.68;2.97;;;;;;;20.84;79.54;100421.63;4937391;29;20039;-78
2023/09/19 00:53:16;;;;;;;8.50;2.97;;;;;;;20.79;79.98;100405.44;4937335;29;20044;-79
2023/09/19 00:56:11;;;;;;;8.82;3.33;;;;;;;20.92;79.94;100403.09;4936677;29;20051;-79
2023/09/19 00:59:05;;;;;;;5.05;2.65;;;;;;;20.93;79.25;100396.38;4937299;29;20050;-79
2023/09/19 01:02:00;;;;;;;9.52;2.88;;;;;;;21.06;78.72;100394.03;4938233;29;20560;-78
2023/09/19 01:04:58;;;;;;;10.05;3.53;;;;;;;20.86;79.08;100396.38;4941710;29;20067;-79
2023/09/19 01:07:52;;;;;;;15.02;3.40;;;;;;;20.95;78.45;100391.25;4937734;29;20039;-78
2023/09/19 01:10:50;;;;;;;12.27;3.08;;;;;;;20.76;79.88;100391.63;4936734;29;20687;-78
2023/09/19 01:14:05;;;;;;;8.68;2.95;;;;;;;21.01;79.10;100386.13;4939934;29;20405;-78
2023/09/19 01:17:22;;;;;;;12.05;3.50;;;;;;;21.04;78.72;100391.66;4936798;29;20079;-79
2023/09/19 01:20:28;;;;;;;10.00;3.53;;;;;;;21.05;79.07;100397.97;4939192;29;20160;-79
2023/09/19 01:23:43;;;;;;;11.55;3.08;;;;;;;21.00;78.95;100399.16;4936313;29;20051;-79
2023/09/19 01:26:41;;;;;;;9.40;4.05;;;;;;;20.91;79.32;100396.78;4936275;29;20046;-80
2023/09/19 01:29:44;;;;;;;6.28;3.25;;;;;;;20.97;79.19;100408.25;4936447;29;20051;-79
2023/09/19 01:32:39;;;;;;;10.65;3.63;;;;;;;20.99;78.77;100402.31;4939391;29;20070;-80
2023/09/19 01:35:31;;;;;;;;;;;;;;;21.05;78.54;100406.25;4936806;29;20055;-79
2023/09/19 01:38:25;;;;;;;16.42;3.20;;;;;;;21.08;78.54;100397.97;4940223;29;19919;-79
2023/09/19 01:41:24;;;;;;;11.65;2.83;;;;;;;21.12;77.97;100396.00;4938228;29;20040;-80
2023/09/19 01:44:24;;;;;;;11.02;3.35;;;;;;;21.21;77.93;100395.66;4935724;29;20048;-79
2023/09/19 01:47:45;;;;;;;13.88;3.55;;;;;;;20.67;81.28;100407.78;4938640;29;20047;-79
2023/09/19 01:50:48;;;;;;;14.95;5.25;;;;;;;20.55;82.30;100403.41;4939967;29;20050;-80
2023/09/19 01:53:57;;;;;;;9.82;4.20;;;;;;;20.59;82.60;100411.69;4938080;29;20416;-79
2023/09/19 01:56:52;;;;;;;13.32;4.43;;;;;;;20.45;83.36;100416.00;4934826;29;20622;-78
2023/09/19 01:59:49;;;;;;;13.18;4.13;;;;;;;20.41;83.32;100409.69;4938679;29;20054;-78
2023/09/19 02:02:45;;;;;;;13.70;4.47;;;;;;;20.31;83.69;100413.19;4936503;29;20413;-79
2023/09/19 02:05:40;;;;;;;14.43;4.13;;;;;;;20.07;83.90;100411.06;4938882;29;20048;-79
2023/09/19 02:08:33;;;;;;;16.52;4.90;;;;;;;19.87;84.83;100416.06;4937403;29;20047;-79
2023/09/19 02:11:27;;;;;;;18.75;4.28;;;;;;;20.06;84.78;100410.25;4935830;29;20075;-79
2023/09/19 02:14:22;;;;;;;16.75;3.95;;;;;;;20.16;85.09;100414.28;4938568;29;20040;-78
2023/09/19 02:17:17;;;;;;;18.75;4.28;;;;;;;20.05;84.55;100407.91;4936904;29;20048;-79
2023/09/19 02:20:14;;;;;;;18.90;4.18;;;;;;;19.95;84.82;100409.44;4935732;29;20039;-80
2023/09/19 02:23:07;;;;;;;17.23;4.38;;;;;;;20.19;84.52;100415.47;4936879;29;20043;-79
2023/09/19 02:26:08;;;;;;;16.25;4.53;;;;;;;20.20;83.65;100417.84;4934646;29;20562;-79
2023/09/19 02:29:02;;;;;;;15.00;4.35;;;;;;;20.42;81.82;100413.22;4937830;29;20050;-78
2023/09/19 02:31:58;;;;;;;15.15;4.60;;;;;;;20.01;83.51;100407.09;4936353;29;20044;-77
2023/09/19 02:34:53;;;;;;;17.42;4.20;;;;;;;20.16;83.93;100408.75;4935259;29;20047;-77
2023/09/19 02:37:48;;;;;;;15.57;4.72;;;;;;;19.90;84.18;100409.00;4936459;29;20080;-79
2023/09/19 02:40:42;;;;;;;18.10;4.60;;;;;;;19.67;85.37;100408.44;4934524;29;20493;-78
2023/09/19 02:43:34;;;;;;;21.17;4.82;;;;;;;19.80;85.99;100413.28;4938559;29;20042;-80
2023/09/19 02:46:28;;;;;;;16.27;4.68;;;;;;;20.21;83.54;100404.81;4934914;29;20047;-80
2023/09/19 02:49:18;;;;;;;12.43;4.43;;;;;;;20.35;82.03;100405.72;4939075;29;20432;-80
2023/09/19 02:52:12;;;;;;;15.70;4.18;;;;;;;20.19;82.53;100413.50;4937439;29;20048;-80
2023/09/19 02:55:09;;;;;;;16.30;4.70;;;;;;;19.68;85.49;100404.50;4935213;29;20043;-80
2023/09/19 02:58:04;;;;;;;11.98;5.07;;;;;;;19.73;85.93;100406.91;4935570;29;20067;-80
2023/09/19 03:00:58;;;;;;;22.00;5.97;;;;;;;19.98;85.11;100407.84;4935476;29;20048;-80
2023/09/19 03:03:53;;;;;;;25.23;4.95;;;;;;;20.20;83.51;100414.28;4939130;29;20039;-80
2023/09/19 03:06:45;;;;;;;15.80;4.72;;;;;;;20.26;82.98;100413.53;4936343;29;20437;-79
2023/09/19 03:09:39;;;;;;;13.60;5.05;;;;;;;20.09;82.71;100408.72;4934505;29;20043;-79
2023/09/19 03:12:34;;;;;;;16.35;5.35;;;;;;;20.30;83.35;100421.81;4935025;29;20043;-80
2023/09/19 03:15:28;;;;;;;11.90;4.47;;;;;;;20.50;80.56;100420.34;4934534;29;20405;-80
2023/09/19 03:18:23;;;;;;;11.38;3.95;;;;;;;20.52;78.89;100414.44;4938636;29;20548;-80
2023/09/19 03:21:18;;;;;;;19.15;4.78;;;;;;;20.35;80.23;100416.75;4936542;29;20048;-80
2023/09/19 03:24:12;;;;;;;11.00;4.00;;;;;;;20.39;80.53;100416.75;4934326;29;20044;-80
2023/09/19 03:27:10;;;;;;;6.95;3.92;;;;;;;20.29;81.76;100418.28;4936563;29;20055;-80
2023/09/19 03:30:07;;;;;;;7.95;4.15;;;;;;;19.98;82.79;100413.38;4935426;29;20062;-79
2023/09/19 03:33:01;;;;;;;9.82;4.35;;;;;;;20.08;83.77;100416.19;4938643;29;20075;-80
2023/09/19 03:35:59;;;;;;;12.75;4.95;;;;;;;20.22;82.46;100407.19;4935911;29;20051;-80
2023/09/19 03:38:53;;;;;;;11.57;4.88;;;;;;;20.00;81.33;100411.03;4934263;29;20051;-80
2023/09/19 03:41:46;;;;;;;14.50;4.63;;;;;;;20.02;81.34;100409.47;4937252;29;20043;-80
2023/09/19 03:44:40;;;;;;;12.48;4.90;;;;;;;19.90;84.36;100407.03;4933970;29;20059;-78
2023/09/19 03:47:32;;;;;;;11.27;4.22;;;;;;;19.99;85.76;100412.19;4935025;29;20051;-79
2023/09/19 03:50:27;;;;;;;12.43;4.65;;;;;;;20.07;85.25;100394.50;4936141;29;20425;-79
2023/09/19 03:53:22;;;;;;;14.70;4.20;;;;;;;20.05;85.00;100394.09;4934136;29;20048;-79
2023/09/19 03:56:14;;;;;;;13.80;5.25;;;;;;;20.12;84.28;100405.16;4936912;29;20048;-78
2023/09/19 03:59:08;;;;;;;16.35;4.55;;;;;;;20.10;84.76;100393.72;4927797;29;20717;-79
2023/09/19 04:02:03;;;;;;;16.35;5.15;;;;;;;19.99;84.94;100390.13;4948862;28;20043;-78
2023/09/19 04:04:57;;;;;;;8.77;4.60;;;;;;;19.89;85.33;100391.66;4924474;29;20059;-78
2023/09/19 04:07:52;;;;;;;11.52;4.80;;;;;;;19.95;85.19;100389.31;4925768;29;20047;-78
2023/09/19 04:10:47;;;;;;;18.30;5.30;;;;;;;19.88;85.33;100398.34;4922609;29;20036;-77
2023/09/19 04:13:42;;;;;;;14.27;5.35;;;;;;;19.94;85.46;100394.03;4928551;29;20043;-78
2023/09/19 04:16:37;;;;;;;12.93;4.75;;;;;;;19.92;85.63;100387.31;4934248;29;20035;-78
2023/09/19 04:19:32;;;;;;;9.13;4.47;;;;;;;19.95;85.55;100392.06;4928667;29;20129;-78
2023/09/19 04:22:27;;;;;;;17.08;5.05;;;;;;;19.96;85.33;100385.38;4940219;28;20047;-79
2023/09/19 04:25:22;;;;;;;15.82;5.03;;;;;;;19.94;85.19;100391.28;4932746;29;20044;-78
2023/09/19 04:28:16;;;;;;;15.50;4.55;;;;;;;20.03;84.92;100388.97;4935138;29;20031;-78
2023/09/19 04:31:11;;;;;;;13.38;4.50;;;;;;;20.12;83.45;100380.31;4935177;29;20055;-79
2023/09/19 04:34:05;;;;;;;10.30;3.90;;;;;;;20.24;83.59;100391.03;4937307;29;20031;-79
2023/09/19 04:37:00;;;;;;;15.60;4.20;;;;;;;20.23;83.15;100394.16;4938894;29;20050;-78
2023/09/19 04:39:55;;;;;;;14.20;4.43;;;;;;;19.91;84.35;100389.28;4941929;29;20047;-78
2023/09/19 04:42:55;;;;;;;12.98;4.85;;;;;;;19.76;85.83;100397.88;4937984;29;20420;-78
2023/09/19 04:45:47;;;;;;;9.05;4.32;;;;;;;19.67;86.04;100400.16;4942315;29;20035;-79
2023/09/19 04:48:39;;;;;;;10.65;4.38;;;;;;;19.63;86.25;100394.63;4940941;29;20448;-78
2023/09/19 04:51:34;;;;;;;16.42;6.18;;;;;;;19.74;86.42;100402.97;4938458;29;20039;-78
2023/09/19 04:54:26;;;;;;;;;;;;;;;19.68;85.93;100407.28;4941940;29;20070;-77
2023/09/19 04:57:21;;;;;;;10.95;4.13;;;;;;;19.80;84.84;100406.97;4939583;29;20380;-78
2023/09/19 05:00:19;;;;;;;11.52;4.75;;;;;;;19.80;85.39;100407.75;4937338;29;20043;-78
2023/09/19 05:03:14;;;;;;;8.68;4.25;;;;;;;19.58;87.01;100411.53;4940499;29;20051;-78
2023/09/19 05:06:08;;;;;;;14.10;5.50;;;;;;;19.63;86.10;100417.50;4937933;29;20062;-78
2023/09/19 05:09:03;;;;;;;11.55;4.65;;;;;;;19.64;85.86;100423.81;4941352;29;20035;-79
2023/09/19 05:11:58;;;;;;;11.65;4.70;;;;;;;19.56;86.47;100419.41;4938947;29;20051;-78
2023/09/19 05:14:50;;;;;;;11.10;3.80;;;;;;;19.41;86.94;100424.00;4939095;29;20043;-79
2023/09/19 05:17:49;;;;;;;14.75;4.00;;;;;;;19.52;86.59;100438.69;4937816;29;20496;-78
2023/09/19 05:20:45;;;;;;;8.43;3.35;;;;;;;20.03;85.65;100435.88;4937753;29;20416;-79
2023/09/19 05:23:40;;;;;;;12.43;4.47;;;;;;;20.29;82.58;100442.34;4940746;29;20074;-79
2023/09/19 05:26:34;;;;;;;9.98;3.67;;;;;;;20.31;82.77;100449.09;4920977;29;20047;-78
2023/09/19 05:29:28;;;;;;;7.22;3.38;;;;;;;20.42;81.98;100447.16;4925607;29;20046;-78
2023/09/19 05:32:23;;;;;;;12.45;4.10;;;;;;;20.71;81.09;100453.59;4924871;29;20051;-78
2023/09/19 05:35:17;;;;;;;9.82;3.75;;;;;;;20.66;79.78;100461.47;4927697;29;20040;-78
2023/09/19 05:38:13;;;;;;;10.55;3.28;;;;;;;20.62;80.81;100466.19;4932568;29;20055;-78
2023/09/19 05:41:08;;;;;;;9.93;3.33;;;;;;;20.63;80.67;100465.00;4918938;29;20036;-79
2023/09/19 05:44:00;;;;;;;14.85;2.55;;;;;;;20.87;80.60;100461.53;4936759;29;20155;-79
2023/09/19 05:46:53;;;;;;;10.30;3.13;;;;;;;20.64;80.57;100472.91;4933458;29;20039;-79
2023/09/19 05:49:48;;;;;;;9.43;3.45;;;;;;;20.56;81.39;100481.56;4937753;29;20412;-78
2023/09/19 05:52:43;;;;;;;10.02;3.63;;;;;;;20.76;80.64;100488.34;4933412;29;20050;-80
2023/09/19 05:55:37;;;;;;;15.70;3.50;;;;;;;20.84;80.32;100493.50;4938200;29;20035;-80
2023/09/19 05:58:32;;;;;;;6.43;3.28;;;;;;;21.06;79.86;100488.03;4936242;29;20043;-81
2023/09/19 06:01:27;;;;;;;9.50;3.22;;;;;;;21.16;78.39;100493.63;4932656;29;20047;-80
2023/09/19 06:04:22;;;;;;;9.60;2.90;;;;;;;21.48;77.20;100504.75;4929972;29;20051;-81
2023/09/19 06:07:14;;;;;;;;;;;;;;;21.74;75.42;100500.78;4929312;29;20058;-81
2023/09/19 06:10:10;;;;;;;10.80;2.28;;;;;;;21.84;74.14;100507.50;4938416;29;20287;-81
2023/09/19 06:13:05;;;;;;;11.43;2.85;;;;;;;21.99;73.96;100500.81;4929415;29;20044;-80
2023/09/19 06:16:02;;;;;;;12.70;2.47;;;;;;;22.13;72.90;100501.56;4933277;29;20059;-79
2023/09/19 06:18:56;;;;;;;3.97;2.00;;;;;;;22.22;72.07;100503.13;4929543;29;20048;-80
2023/09/19 06:21:48;;;;;;;12.05;2.88;;;;;;;22.11;71.90;100503.94;4926463;29;20046;-80
2023/09/19 06:24:43;;;;;;;5.22;2.50;;;;;;;22.27;71.64;100505.50;4930449;29;20480;-80
2023/09/19 06:27:37;;;;;;;10.38;3.00;;;;;;;22.31;71.66;100511.81;4934324;29;20531;-79
2023/09/19 06:30:30;;;;;;;9.80;2.33;;;;;;;22.42;71.17;100515.34;4925201;29;20528;-80
2023/09/19 06:33:25;;;;;;;12.85;2.70;;;;;;;22.50;70.72;100514.16;4920266;29;20063;-79
2023/09/19 06:36:19;;;;;;;14.57;2.60;;;;;;;22.89;70.40;100514.00;4929509;29;20043;-79
2023/09/19 06:39:14;;;;;;;23.13;5.45;;;;;;;23.55;68.30;100511.25;4926679;29;20036;-79
2023/09/19 06:42:08;;;;;;;36.15;12.38;;;;;;;23.85;67.11;100517.75;4922220;29;20040;-78
2023/09/19 06:45:03;;;;;;;9.70;2.85;;;;;;;23.96;66.97;100514.88;4922489;29;20035;-79
2023/09/19 06:47:58;;;;;;;11.52;2.53;;;;;;;24.16;66.13;100517.84;4925348;29;20043;-78
2023/09/19 06:50:52;;;;;;;12.40;2.97;;;;;;;24.17;66.41;100513.91;4929194;29;20043;-78
2023/09/19 06:53:44;;;;;;;;;;;;;;;24.61;65.64;100519.38;4923497;29;20040;-77
2023/09/19 06:56:36;;;;;;;11.73;3.28;;;;;;;24.65;65.28;100517.34;4934912;29;19916;-79
2023/09/19 06:59:31;;;;;;;12.77;3.05;;;;;;;24.50;65.32;100518.69;4938918;29;20043;-76
2023/09/19 07:02:25;;;;;;;10.43;3.00;;;;;;;24.68;65.15;100510.97;4934654;29;20051;-76
2023/09/19 07:05:20;;;;;;;9.88;2.50;;;;;;;25.21;62.63;100519.81;4939647;29;20055;-78
2023/09/19 07:08:14;;;;;;;8.25;2.47;;;;;;;25.32;62.16;100515.66;4930875;29;20051;-82
2023/09/19 07:11:10;;;;;;;8.30;2.72;;;;;;;25.60;60.17;100520.03;4932713;29;20515;-90
2023/09/19 07:14:05;;;;;;;9.65;2.20;;;;;;;25.20;60.29;100513.44;4937681;29;20051;-83
2023/09/19 07:16:59;;;;;;;5.32;2.47;;;;;;;25.78;58.17;100528.09;4932464;28;20043;-85
2023/09/19 07:19:51;;;;;;;4.65;2.22;;;;;;;25.99;58.01;100524.97;4944119;28;20054;-85
2023/09/19 07:22:45;;;;;;;22.08;3.67;;;;;;;26.12;58.04;100530.69;4949487;28;20047;-81
2023/09/19 07:25:40;;;;;;;11.35;2.33;;;;;;;26.28;56.50;100537.19;4942290;28;20044;-83
2023/09/19 07:28:35;;;;;;;10.43;2.55;;;;;;;26.34;55.73;100537.50;4950930;28;20410;-82
2023/09/19 07:31:29;;;;;;;7.60;1.90;;;;;;;26.13;55.10;100538.63;4936247;28;20050;-84
2023/09/19 07:34:21;;;;;;;;;;;;;;;26.60;54.32;100536.59;4936628;29;20086;-81
2023/09/19 07:37:16;;;;;;;7.15;1.83;;;;;;;26.67;53.14;100550.38;4937470;28;20440;-85
2023/09/19 07:40:09;;;;;;;;;;;;;;;26.90;52.63;100546.78;4930336;29;20047;-83
2023/09/19 07:43:04;;;;;;;7.30;1.25;;;;;;;26.93;52.04;100542.31;4942217;28;19922;-83
2023/09/19 07:45:56;;;;;;;10.38;1.52;;;;;;;26.73;51.99;100545.09;4932097;29;20051;-80
2023/09/19 07:48:52;;;;;;;6.72;1.40;;;;;;;27.22;50.23;100568.44;4936131;29;20058;-82
2023/09/19 07:51:44;;;;;;;;;;;;;;;26.85;50.63;100563.19;4934887;28;20416;-81
2023/09/19 07:54:38;;;;;;;6.25;1.23;;;;;;;27.24;49.78;100569.56;4939991;28;19923;-85
2023/09/19 07:57:34;;;;;;;5.47;1.40;;;;;;;27.19;50.30;100570.06;4930538;29;20046;-82
2023/09/19 08:00:28;;;;;;;4.60;1.00;;;;;;;27.12;49.53;100569.44;4935503;29;20065;-83
2023/09/19 08:03:23;;;;;;;8.27;1.88;;;;;;;27.65;48.47;100574.63;4932371;29;20051;-82
2023/09/19 08:06:17;;;;;;;4.20;1.23;;;;;;;27.65;48.63;100577.44;4950216;28;20046;-82
2023/09/19 08:09:10;;;;;;;;;;;;;;;28.11;48.12;100577.50;4925458;29;20042;-82
2023/09/19 08:12:05;;;;;;;4.50;1.75;;;;;;;27.61;49.14;100575.94;4935103;29;19934;-82
2023/09/19 08:15:01;;;;;;;4.78;1.35;;;;;;;27.39;49.37;100581.19;4951090;29;20066;-82
2023/09/19 08:17:50;;;;;;;;;;;;;;;28.01;47.91;100582.16;4944904;29;20047;-83
2023/09/19 08:20:45;;;;;;;11.60;1.70;;;;;;;28.12;48.07;100587.50;4942348;29;19918;-81
2023/09/19 08:23:37;;;;;;;;;;;;;;;28.26;47.45;100587.91;4948793;29;20055;-82
2023/09/19 08:26:33;;;;;;;5.10;1.23;;;;;;;28.61;46.92;100591.00;4948106;29;19914;-82
2023/09/19 08:29:27;;;;;;;8.93;1.40;;;;;;;28.64;46.48;100601.31;4930045;29;20412;-84
2023/09/19 08:32:19;;;;;;;;;;;;;;;28.99;45.98;100591.94;4941403;29;20524;-82
2023/09/19 08:35:14;;;;;;;4.57;1.25;;;;;;;28.46;47.04;100604.59;4927046;29;19918;-85
2023/09/19 08:38:06;;;;;;;6.22;1.52;;;;;;;28.57;46.00;100607.09;4941822;29;20043;-83
2023/09/19 08:41:01;;;;;;;8.32;1.63;;;;;;;28.25;46.38;100599.53;4952026;29;20046;-82
2023/09/19 08:43:56;;;;;;;6.80;0.75;;;;;;;28.46;45.58;100607.38;4941888;29;20054;-83
2023/09/19 08:46:49;;;;;;;5.20;1.55;;;;;;;27.05;48.81;100601.09;4944429;29;20136;-80
2023/09/19 08:50:00;;;;;;;8.98;1.75;;;;;;;26.25;51.56;100601.41;4941769;29;20047;-79
2023/09/19 08:52:55;;;;;;;13.15;1.70;;;;;;;25.64;54.12;100600.78;4944265;29;20417;-80
2023/09/19 08:55:49;;;;;;;;;;;;;;;25.31;55.93;100597.59;4954239;29;20135;-80
2023/09/19 08:58:53;;;;;;;7.60;1.80;;;;;;;24.99;57.35;100591.69;4945768;28;19922;-79
2023/09/19 09:01:48;;;;;;;5.75;1.77;;;;;;;24.79;57.60;100599.81;4956304;28;20058;-80
2023/09/19 09:04:43;;;;;;;5.30;1.17;;;;;;;24.68;58.43;100605.50;4959434;28;20047;-80
2023/09/19 09:07:39;;;;;;;7.00;1.70;;;;;;;24.58;58.22;100600.81;4957726;28;20054;-79
2023/09/19 09:10:33;;;;;;;8.77;2.35;;;;;;;24.69;58.70;100606.28;4961129;28;20455;-79
2023/09/19 09:13:29;;;;;;;7.13;1.58;;;;;;;24.57;59.16;100607.63;4958498;28;20507;-80
2023/09/19 09:16:23;;;;;;;6.80;2.22;;;;;;;24.65;59.12;100599.97;4955842;28;20051;-80
2023/09/19 09:19:24;;;;;;;8.23;2.28;;;;;;;24.69;58.92;100595.16;4959784;28;20054;-80
2023/09/19 09:22:18;;;;;;;9.77;1.70;;;;;;;24.58;59.30;100595.25;4949887;28;20047;-79
2023/09/19 09:25:12;;;;;;;3.03;1.55;;;;;;;24.48;60.27;100600.97;4932975;29;20047;-79
2023/09/19 09:28:07;;;;;;;9.57;2.40;;;;;;;24.40;60.40;100607.78;4932263;29;20047;-80
2023/09/19 09:30:59;;;;;;;7.43;1.95;;;;;;;24.49;60.24;100608.88;4931978;29;20055;-80
2023/09/19 09:33:58;;;;;;;9.93;1.85;;;;;;;24.51;60.37;100600.13;4940031;29;20051;-79
2023/09/19 09:36:51;;;;;;;10.18;2.47;;;;;;;24.54;60.34;100610.41;4937238;29;20050;-80
2023/09/19 09:39:50;;;;;;;7.20;1.92;;;;;;;24.43;60.73;100616.06;4941166;29;20036;-80
2023/09/19 09:42:46;;;;;;;7.93;2.60;;;;;;;24.46;60.76;100614.47;4938804;29;20050;-80
2023/09/19 09:45:41;;;;;;;13.40;2.60;;;;;;;24.59;60.12;100610.75;4934937;29;20063;-80
2023/09/19 09:48:39;;;;;;;7.93;2.10;;;;;;;24.63;60.45;100611.53;4939760;29;20040;-81
2023/09/19 09:51:37;;;;;;;18.33;2.38;;;;;;;24.61;60.35;100611.13;4937459;29;20074;-80
2023/09/19 09:54:36;;;;;;;13.65;2.80;;;;;;;24.59;60.42;100604.41;4940418;29;20047;-80
2023/09/19 09:57:31;;;;;;;13.52;2.58;;;;;;;24.52;60.36;100602.50;4933443;29;20501;-83
2023/09/19 10:00:20;;;;;;;6.60;1.92;;;;;;;24.63;60.09;100603.19;4932605;29;20164;-83
2023/09/19 10:03:32;;;;;;;13.25;2.65;;;;;;;24.79;59.36;100596.25;4929693;29;20063;-81
2023/09/19 10:09:19;;;;;;;5.15;1.67;;;;;;;24.64;60.15;100596.41;4928635;29;20519;-79
2023/09/19 10:12:17;;;;;;;12.90;2.67;;;;;;;24.69;60.33;100589.59;4923650;29;20055;-80
2023/09/19 10:15:16;;;;;;;7.28;2.40;;;;;;;24.66;61.00;100591.22;4922405;29;20036;-81
2023/09/19 10:18:18;;;;;;;8.15;1.90;;;;;;;24.73;60.38;100595.13;4919142;29;20516;-81
2023/09/19 10:21:11;;;;;;;4.75;2.28;;;;;;;24.76;60.21;100594.28;4926897;29;20126;-82
2023/09/19 10:24:07;;;;;;;14.07;1.92;;;;;;;24.73;60.53;100598.72;4933495;29;20043;-80
2023/09/19 10:27:03;;;;;;;6.97;2.17;;;;;;;24.81;60.37;100602.97;4925932;29;20063;-82
2023/09/19 10:29:56;;;;;;;10.93;1.77;;;;;;;24.75;60.21;100595.50;4923097;29;20048;-81
2023/09/19 10:32:59;;;;;;;8.30;2.20;;;;;;;24.66;60.69;100601.56;4927491;29;20036;-80
2023/09/19 10:35:55;;;;;;;9.05;2.13;;;;;;;24.69;60.73;100604.28;4935560;29;20066;-82
2023/09/19 10:38:51;;;;;;;9.88;2.72;;;;;;;24.84;60.14;100593.03;4940945;29;20409;-80
2023/09/19 10:41:50;;;;;;;6.47;1.70;;;;;;;24.77;59.93;100590.31;4938508;29;20046;-81
2023/09/19 10:44:53;;;;;;;9.25;1.95;;;;;;;24.76;60.05;100599.84;4925685;29;20043;-82
2023/09/19 10:47:48;;;;;;;4.85;1.60;;;;;;;24.83;59.91;100597.00;4920226;29;20049;-82
2023/09/19 10:51:11;;;;;;;8.85;2.60;;;;;;;24.94;59.08;100590.13;4922449;29;20039;-82
2023/09/19 10:54:13;;;;;;;7.72;2.05;;;;;;;24.94;59.11;100587.34;4922154;29;20046;-81
2023/09/19 10:57:10;;;;;;;6.85;1.65;;;;;;;24.83;59.73;100583.88;4921047;29;20047;-81
2023/09/19 11:03:18;;;;;;;8.65;2.20;;;;;;;24.65;60.22;100583.28;4922811;29;20428;-82
2023/09/19 11:06:19;;;;;;;10.77;2.72;;;;;;;24.71;60.31;100576.88;4919410;29;20117;-81
2023/09/19 11:09:22;;;;;;;10.32;1.75;;;;;;;24.67;60.21;100567.78;4929546;29;20033;-81
2023/09/19 11:15:55;;;;;;;2.75;1.55;;;;;;;24.77;59.38;100579.97;4921359;29;20047;-81
2023/09/19 11:18:51;;;;;;;4.80;1.63;;;;;;;24.84;59.87;100573.56;4918387;29;20059;-80
2023/09/19 11:21:53;;;;;;;10.48;2.17;;;;;;;24.97;59.30;100574.59;4921223;29;20714;-81
2023/09/19 11:24:49;;;;;;;6.68;1.70;;;;;;;24.85;59.41;100575.09;4928281;29;20046;-81
2023/09/19 11:28:23;;;;;;;4.50;1.95;;;;;;;24.92;59.23;100575.06;4917744;29;20047;-82
2023/09/19 11:31:47;;;;;;;10.15;1.60;;;;;;;25.14;58.33;100570.81;4919100;29;20070;-82
2023/09/19 11:34:50;;;;;;;4.65;1.70;;;;;;;25.15;58.38;100566.81;4939389;29;20038;-81
2023/09/19 11:37:45;;;;;;;6.05;2.80;;;;;;;25.16;58.27;100564.81;4924920;29;20046;-82
2023/09/19 11:40:40;;;;;;;6.85;1.98;;;;;;;24.99;58.71;100566.63;4923893;29;20051;-81
2023/09/19 11:43:35;;;;;;;10.55;1.95;;;;;;;25.02;58.88;100563.81;4919870;29;20611;-82
2023/09/19 11:46:29;;;;;;;9.88;2.50;;;;;;;25.28;57.49;100567.84;4920223;29;20059;-81
2023/09/19 11:49:29;;;;;;;4.15;1.90;;;;;;;25.18;57.84;100571.56;4922104;29;20074;-81
2023/09/19 11:52:24;;;;;;;7.57;2.00;;;;;;;25.26;57.29;100561.09;4927649;29;20042;-80
2023/09/19 11:55:19;;;;;;;4.80;2.20;;;;;;;25.14;57.89;100559.69;4921563;29;20063;-80
2023/09/19 11:58:17;;;;;;;4.25;2.05;;;;;;;25.07;58.55;100563.34;4934389;29;20532;-81
2023/09/19 12:01:20;;;;;;;4.60;1.50;;;;;;;25.10;58.09;100558.91;4929462;28;20433;-82
2023/09/19 12:04:16;;;;;;;8.32;2.25;;;;;;;25.03;58.73;100550.69;4935362;29;20055;-82
2023/09/19 12:07:10;;;;;;;8.30;2.10;;;;;;;25.11;58.49;100550.16;4935985;29;20051;-83
2023/09/19 12:10:12;;;;;;;5.85;1.63;;;;;;;25.04;58.78;100543.91;4920729;29;20038;-82
2023/09/19 12:13:06;;;;;;;9.73;2.05;;;;;;;25.70;56.65;100548.94;4919161;29;20055;-82
2023/09/19 12:16:01;;;;;;;10.88;1.98;;;;;;;25.75;56.13;100549.22;4924770;29;20043;-82
2023/09/19 12:18:54;;;;;;;5.75;2.08;;;;;;;26.35;52.62;100537.09;4922541;29;20473;-82
2023/09/19 12:21:56;;;;;;;12.23;2.10;;;;;;;26.78;51.66;100530.63;4926963;29;20043;-82
2023/09/19 12:24:51;;;;;;;5.57;1.50;;;;;;;26.86;51.75;100537.66;4937060;29;20066;-83
2023/09/19 12:27:51;;;;;;;8.43;2.72;;;;;;;26.97;50.48;100540.25;4934588;29;20043;-82
2023/09/19 12:30:45;;;;;;;9.02;1.75;;;;;;;26.64;52.19;100528.16;4937728;29;20047;-83
2023/09/19 12:33:40;;;;;;;5.97;2.40;;;;;;;26.53;53.00;100535.94;4936906;29;20055;-83
2023/09/19 12:36:34;;;;;;;7.57;2.47;;;;;;;26.22;53.58;100527.75;4933322;28;20424;-85
2023/09/19 12:39:29;;;;;;;4.78;1.48;;;;;;;26.26;53.95;100524.91;4932368;29;20565;-82
2023/09/19 12:42:25;;;;;;;3.45;2.10;;;;;;;27.04;48.87;100528.91;4928374;29;20418;-83
2023/09/19 12:45:19;;;;;;;7.35;2.40;;;;;;;26.85;50.58;100521.34;4925941;29;20047;-80
2023/09/19 12:48:29;;;;;;;6.72;2.28;;;;;;;26.29;53.00;100527.63;4933618;29;20062;-80
2023/09/19 12:51:22;;;;;;;8.80;1.90;;;;;;;26.00;54.24;100532.13;4928671;29;20729;-82
2023/09/19 12:54:17;;;;;;;9.73;2.92;;;;;;;26.37;52.52;100526.25;4938448;29;20059;-82
2023/09/19 12:57:25;;;;;;;9.80;3.63;;;;;;;26.34;51.55;100527.13;4918904;29;20047;-81
2023/09/19 13:00:17;;;;;;;12.07;2.88;;;;;;;25.94;55.16;100520.66;4921785;29;20051;-83
2023/09/19 13:03:25;;;;;;;20.60;3.22;;;;;;;27.32;47.41;100524.72;4920495;29;20040;-82
2023/09/19 13:06:37;;;;;;;12.07;2.70;;;;;;;26.94;53.25;100522.34;4924223;29;20532;-81
2023/09/19 13:09:39;;;;;;;16.13;2.75;;;;;;;26.29;55.45;100522.06;4931996;29;20034;-82
2023/09/19 13:12:43;;;;;;;6.57;2.35;;;;;;;26.03;55.02;100513.75;4936701;29;20528;-83
2023/09/19 13:15:57;;;;;;;14.30;3.15;;;;;;;26.11;52.59;100515.97;4938688;29;20050;-80
2023/09/19 13:18:57;;;;;;;9.55;2.65;;;;;;;26.22;54.63;100510.22;4940714;29;20046;-82
2023/09/19 13:21:49;;;;;;;366.92;71.55;;;;;;;26.36;53.87;100510.75;4936158;29;20054;-84
2023/09/19 13:24:41;;;;;;;527.30;115.93;;;;;;;26.36;51.18;100516.31;4942462;29;20048;-86
2023/09/19 13:27:35;;;;;;;269.92;52.63;;;;;;;26.18;54.47;100513.06;4939944;29;20048;-85
2023/09/19 13:30:28;;;;;;;180.25;37.92;;;;;;;26.16;54.08;100506.34;4941764;29;20047;-83
2023/09/19 13:33:22;;;;;;;39.53;11.43;;;;;;;25.81;54.78;100507.75;4941067;29;20413;-82
2023/09/19 13:36:17;;;;;;;18.98;4.88;;;;;;;25.75;54.36;100510.22;4939061;29;20047;-83
2023/09/19 13:39:12;;;;;;;14.32;4.20;;;;;;;26.22;50.79;100510.22;4942210;29;20047;-82
2023/09/19 13:42:06;;;;;;;14.32;3.30;;;;;;;26.86;48.24;100509.75;4932916;29;20052;-83
2023/09/19 13:44:58;;;;;;;9.05;2.70;;;;;;;27.18;47.83;100506.25;4918079;29;20040;-83
2023/09/19 13:47:53;;;;;;;13.43;2.67;;;;;;;27.34;45.46;100500.72;4924859;29;20417;-82